Time;durP1;ratioP1;P1;durP2;ratioP2;P2;SDS_P1;SDS_P2;PMS_P1;PMS_P2;Temp;Humidity;BMP_temperature;BMP_pressure;BME280_temperature;BME280_humidity;BME280_pressure;Samples;Min_cycle;Max_cycle;Signal;HPM_P1;HPM_P2
2022/03/02 00:00:52;;;;;;;32.20;16.33;;;;;;;-3.50;94.82;97430.81;5016764;28;20037;-66
2022/03/02 00:03:17;;;;;;;37.60;16.60;;;;;;;-3.73;94.35;97433.88;5039379;28;20033;-67
2022/03/02 00:05:43;;;;;;;35.63;16.42;;;;;;;-3.87;94.84;97434.31;5031435;28;20083;-67
2022/03/02 00:08:08;;;;;;;32.60;16.35;;;;;;;-3.78;96.68;97432.00;5031567;28;20044;-66
2022/03/02 00:10:34;;;;;;;34.95;16.02;;;;;;;-3.79;97.10;97435.72;5026627;28;20053;-67
2022/03/02 00:12:59;;;;;;;36.95;16.88;;;;;;;-3.57;96.79;97440.97;5043124;28;20052;-67
2022/03/02 00:15:25;;;;;;;40.17;17.23;;;;;;;-3.40;95.98;97430.09;5036001;28;20101;-66
2022/03/02 00:17:51;;;;;;;34.72;16.90;;;;;;;-3.46;95.47;97426.59;5042230;28;20048;-67
2022/03/02 00:20:17;;;;;;;35.45;16.98;;;;;;;-3.45;95.87;97432.75;5034803;28;20131;-66
2022/03/02 00:22:43;;;;;;;32.83;16.83;;;;;;;-3.43;95.40;97430.63;5025365;28;20461;-68
2022/03/02 00:25:10;;;;;;;35.63;16.48;;;;;;;-3.71;94.25;97437.94;5018265;28;20452;-67
2022/03/02 00:27:36;;;;;;;34.65;17.13;;;;;;;-4.04;93.47;97431.75;5022734;28;20390;-68
2022/03/02 00:30:05;;;;;;;34.22;16.42;;;;;;;-4.35;95.25;97435.22;5032532;28;20446;-67
2022/03/02 00:32:30;;;;;;;38.20;16.85;;;;;;;-4.51;97.50;97426.22;5013129;28;20133;-67
2022/03/02 00:34:55;;;;;;;30.30;15.18;;;;;;;-4.46;98.25;97426.28;5041202;28;20453;-67
2022/03/02 00:37:21;;;;;;;32.38;16.25;;;;;;;-4.62;96.35;97428.00;5036490;28;20037;-66
2022/03/02 00:39:46;;;;;;;36.65;18.27;;;;;;;-4.51;97.78;97427.03;5017089;28;20136;-67
2022/03/02 00:42:12;;;;;;;39.25;18.75;;;;;;;-4.33;99.65;97428.53;5004584;28;20050;-66
2022/03/02 00:44:37;;;;;;;40.92;17.80;;;;;;;-4.18;100.00;97430.56;4988104;28;20046;-68
2022/03/02 00:47:04;;;;;;;39.80;18.73;;;;;;;-3.99;99.41;97438.22;5024205;28;20037;-65
2022/03/02 00:49:31;;;;;;;33.42;17.23;;;;;;;-3.88;99.02;97434.56;5038848;28;20375;-65
2022/03/02 00:51:59;;;;;;;33.35;16.38;;;;;;;-3.93;97.41;97431.84;5021972;28;20048;-66
2022/03/02 00:54:24;;;;;;;35.75;16.60;;;;;;;-4.01;97.39;97430.44;5017069;28;20693;-68
2022/03/02 00:56:50;;;;;;;37.90;18.20;;;;;;;-4.16;96.74;97427.63;5009316;28;20052;-66
2022/03/02 00:59:16;;;;;;;32.92;16.92;;;;;;;-4.82;99.88;97426.69;4999462;28;20136;-67
2022/03/02 01:01:42;;;;;;;41.10;18.60;;;;;;;-5.16;100.00;97419.88;5022359;28;20038;-67
2022/03/02 01:04:07;;;;;;;39.03;17.98;;;;;;;-5.26;100.00;97418.69;4995455;28;20042;-67
2022/03/02 01:06:33;;;;;;;45.58;19.17;;;;;;;-5.30;100.00;97416.75;5000324;28;20064;-67
2022/03/02 01:08:59;;;;;;;42.15;19.02;;;;;;;-5.24;100.00;97395.22;5012545;28;20047;-68
2022/03/02 01:11:24;;;;;;;44.70;20.17;;;;;;;-5.20;100.00;97382.97;5017559;28;20490;-66
2022/03/02 01:13:50;;;;;;;45.88;18.55;;;;;;;-5.22;100.00;97377.06;4988727;28;20045;-67
2022/03/02 01:16:16;;;;;;;39.55;18.77;;;;;;;-5.31;100.00;97380.41;5020152;28;20120;-66
2022/03/02 01:18:42;;;;;;;42.53;18.80;;;;;;;-5.36;100.00;97377.69;5027135;28;20517;-66
2022/03/02 01:21:07;;;;;;;37.80;17.65;;;;;;;-5.12;100.00;97380.91;5029884;28;20045;-67
2022/03/02 01:23:34;;;;;;;36.47;16.92;;;;;;;-5.05;100.00;97363.63;5032908;28;20049;-67
2022/03/02 01:25:59;;;;;;;41.80;18.15;;;;;;;-5.15;100.00;97363.50;5022798;28;20046;-67
2022/03/02 01:28:25;;;;;;;37.47;17.45;;;;;;;-5.25;100.00;97355.38;5020593;28;20045;-67
2022/03/02 01:30:50;;;;;;;36.72;16.73;;;;;;;-5.33;100.00;97347.81;5009064;28;20569;-68
2022/03/02 01:33:16;;;;;;;32.45;16.48;;;;;;;-5.30;100.00;97358.00;5019949;28;20049;-68
2022/03/02 01:35:41;;;;;;;35.17;16.73;;;;;;;-5.34;100.00;97357.69;5026732;28;20136;-67
2022/03/02 01:38:06;;;;;;;32.85;16.63;;;;;;;-5.18;100.00;97356.81;5022121;28;20041;-67
2022/03/02 01:40:32;;;;;;;38.90;17.13;;;;;;;-4.92;100.00;97359.75;5025558;28;20049;-67
2022/03/02 01:42:58;;;;;;;35.67;16.73;;;;;;;-4.81;100.00;97363.34;5025479;28;20049;-67
2022/03/02 01:45:23;;;;;;;32.17;16.55;;;;;;;-4.74;100.00;97358.63;5020073;28;20429;-67
2022/03/02 01:47:49;;;;;;;40.22;17.33;;;;;;;-4.72;100.00;97350.34;5031817;28;20073;-67
2022/03/02 01:50:16;;;;;;;39.05;17.17;;;;;;;-4.76;100.00;97358.06;5018117;28;20609;-67
2022/03/02 01:52:42;;;;;;;31.08;15.82;;;;;;;-4.91;100.00;97350.72;5028744;28;20037;-66
2022/03/02 01:55:09;;;;;;;30.92;15.20;;;;;;;-4.85;100.00;97348.88;5019431;28;20424;-67
2022/03/02 01:57:35;;;;;;;30.08;15.68;;;;;;;-4.75;100.00;97345.50;5025400;28;20052;-67
2022/03/02 02:00:04;;;;;;;35.13;15.32;;;;;;;-4.71;100.00;97351.97;5025073;28;20096;-67
2022/03/02 02:02:30;;;;;;;31.38;15.52;;;;;;;-4.69;100.00;97355.19;5028871;28;20117;-67
2022/03/02 02:04:55;;;;;;;31.70;15.40;;;;;;;-4.70;100.00;97348.22;5029766;28;20105;-67
2022/03/02 02:07:22;;;;;;;33.60;17.10;;;;;;;-4.88;100.00;97347.53;5019081;28;20044;-67
2022/03/02 02:09:48;;;;;;;37.55;17.55;;;;;;;-4.82;100.00;97346.53;5025348;28;20103;-67
2022/03/02 02:12:14;;;;;;;35.72;15.73;;;;;;;-4.85;100.00;97338.19;5001890;28;20049;-67
2022/03/02 02:14:40;;;;;;;32.17;15.88;;;;;;;-5.11;100.00;97342.44;5006757;28;20379;-67
2022/03/02 02:17:05;;;;;;;30.95;15.40;;;;;;;-5.29;100.00;97346.28;5019348;28;20044;-67
2022/03/02 02:19:30;;;;;;;35.80;17.50;;;;;;;-5.26;100.00;97346.59;5023347;28;20153;-67
2022/03/02 02:21:56;;;;;;;35.38;16.45;;;;;;;-5.10;100.00;97349.41;5025005;28;20452;-67
2022/03/02 02:24:21;;;;;;;39.03;17.05;;;;;;;-4.87;100.00;97341.13;5019229;28;20128;-67
2022/03/02 02:26:47;;;;;;;36.22;16.23;;;;;;;-4.88;100.00;97344.88;5025055;28;20137;-67
2022/03/02 02:29:15;;;;;;;34.35;17.00;;;;;;;-5.12;100.00;97338.19;4993651;28;20084;-67
2022/03/02 02:31:41;;;;;;;35.13;17.67;;;;;;;-5.85;100.00;97330.31;5023641;28;20045;-67
2022/03/02 02:34:06;;;;;;;38.50;17.70;;;;;;;-6.16;100.00;97319.22;5018892;28;20037;-67
2022/03/02 02:36:32;;;;;;;37.17;17.75;;;;;;;-6.12;100.00;97332.88;5025432;28;20045;-68
2022/03/02 02:38:58;;;;;;;40.58;18.13;;;;;;;-5.76;100.00;97329.66;5022749;28;20049;-67
2022/03/02 02:41:23;;;;;;;38.25;17.50;;;;;;;-5.42;100.00;97318.06;5017113;28;20701;-67
2022/03/02 02:43:48;;;;;;;40.78;16.70;;;;;;;-5.25;100.00;97312.66;5024732;28;20045;-67
2022/03/02 02:46:14;;;;;;;35.78;16.75;;;;;;;-5.27;100.00;97309.44;5019337;28;20098;-67
2022/03/02 02:48:40;;;;;;;41.08;17.42;;;;;;;-5.22;100.00;97309.47;5025227;28;20084;-67
2022/03/02 02:51:07;;;;;;;36.15;17.63;;;;;;;-5.11;100.00;97313.06;5000821;28;20053;-67
2022/03/02 02:53:33;;;;;;;40.30;17.20;;;;;;;-4.99;100.00;97308.38;5005860;28;20049;-67
2022/03/02 02:55:58;;;;;;;34.05;16.35;;;;;;;-4.85;100.00;97314.16;5023427;28;20037;-67
2022/03/02 02:58:24;;;;;;;38.28;17.02;;;;;;;-4.69;100.00;97310.56;5001096;28;20364;-67
2022/03/02 03:00:50;;;;;;;40.03;17.02;;;;;;;-4.74;100.00;97307.84;5005348;28;20507;-68
2022/03/02 03:03:16;;;;;;;35.15;15.70;;;;;;;-4.83;100.00;97306.69;5018604;28;20116;-68
2022/03/02 03:05:44;;;;;;;33.10;15.95;;;;;;;-4.88;100.00;97304.78;5005685;28;20037;-67
2022/03/02 03:08:11;;;;;;;34.92;15.77;;;;;;;-5.17;100.00;97301.53;5018624;28;20038;-68
2022/03/02 03:10:38;;;;;;;31.30;15.95;;;;;;;-5.45;100.00;97302.56;5023641;28;20047;-67
2022/03/02 03:13:04;;;;;;;29.92;15.23;;;;;;;-5.55;100.00;97289.06;5028488;28;20056;-66
2022/03/02 03:15:30;;;;;;;30.58;14.55;;;;;;;-5.33;100.00;97297.91;5017012;28;20131;-67
2022/03/02 03:17:56;;;;;;;32.60;15.77;;;;;;;-5.18;100.00;97295.38;5043111;28;20132;-66
2022/03/02 03:20:25;;;;;;;33.38;16.17;;;;;;;-5.08;100.00;97294.66;5036609;28;20044;-68
2022/03/02 03:22:51;;;;;;;38.73;17.87;;;;;;;-4.96;100.00;97297.22;5031249;28;20107;-68
2022/03/02 03:25:17;;;;;;;35.45;15.98;;;;;;;-4.96;100.00;97289.19;5010315;28;20300;-68
2022/03/02 03:27:43;;;;;;;36.88;16.23;;;;;;;-4.91;100.00;97291.91;5034994;28;20529;-69
2022/03/02 03:30:11;;;;;;;35.35;16.35;;;;;;;-4.96;100.00;97291.88;5029489;28;20045;-66
2022/03/02 03:32:37;;;;;;;31.65;14.57;;;;;;;-4.96;100.00;97291.06;5032328;28;20048;-68
2022/03/02 03:35:04;;;;;;;33.13;15.50;;;;;;;-4.93;100.00;97293.22;5032206;28;20410;-67
2022/03/02 03:37:30;;;;;;;34.67;15.35;;;;;;;-4.99;100.00;97300.38;5038047;28;20440;-69
2022/03/02 03:39:55;;;;;;;37.08;15.38;;;;;;;-4.93;100.00;97301.22;5042620;28;20041;-66
2022/03/02 03:42:23;;;;;;;36.85;15.50;;;;;;;-4.86;100.00;97304.50;5027385;28;20512;-66
2022/03/02 03:44:49;;;;;;;30.95;15.27;;;;;;;-4.87;100.00;97303.72;5006192;28;20493;-68
2022/03/02 03:47:14;;;;;;;34.00;16.73;;;;;;;-4.89;100.00;97305.84;5002987;28;20597;-67
2022/03/02 03:49:40;;;;;;;33.53;15.32;;;;;;;-4.89;100.00;97305.03;5033649;28;20046;-67
2022/03/02 03:52:06;;;;;;;28.77;14.68;;;;;;;-4.88;100.00;97299.44;5019047;28;20042;-65
2022/03/02 03:54:32;;;;;;;33.35;16.25;;;;;;;-4.87;100.00;97298.38;5006026;28;20033;-68
2022/03/02 03:56:57;;;;;;;37.20;16.98;;;;;;;-4.86;100.00;97294.66;5016952;28;20548;-67
2022/03/02 03:59:23;;;;;;;32.72;15.93;;;;;;;-4.93;100.00;97299.38;5025485;28;20526;-66
2022/03/02 04:01:48;;;;;;;30.77;15.40;;;;;;;-5.06;100.00;97302.44;5025691;28;20094;-65
2022/03/02 04:04:13;;;;;;;31.90;15.88;;;;;;;-5.15;100.00;97301.28;5033163;28;20126;-66
2022/03/02 04:06:39;;;;;;;33.03;15.23;;;;;;;-5.22;100.00;97293.44;5039671;28;20040;-68
2022/03/02 04:09:04;;;;;;;35.33;15.63;;;;;;;-5.37;100.00;97286.09;5019982;28;20053;-64
2022/03/02 04:11:31;;;;;;;31.67;14.80;;;;;;;-5.36;100.00;97289.56;5041216;28;20135;-68
2022/03/02 04:13:57;;;;;;;31.08;14.80;;;;;;;-5.30;100.00;97285.91;5052293;22;20112;-67
2022/03/02 04:16:22;;;;;;;36.00;15.93;;;;;;;-5.15;100.00;97279.91;5019257;28;20080;-66
2022/03/02 04:18:48;;;;;;;33.08;14.05;;;;;;;-5.16;100.00;97278.31;5051025;28;20033;-65
2022/03/02 04:21:14;;;;;;;31.42;15.05;;;;;;;-5.39;100.00;97280.97;5049903;28;20712;-68
2022/03/02 04:23:39;;;;;;;27.20;14.88;;;;;;;-5.32;100.00;97283.47;5048912;28;20041;-67
2022/03/02 04:26:05;;;;;;;31.67;14.48;;;;;;;-5.27;100.00;97274.72;5028136;28;20045;-67
2022/03/02 04:28:30;;;;;;;35.70;15.93;;;;;;;-5.56;100.00;97274.94;5022469;28;20045;-67
2022/03/02 04:30:56;;;;;;;33.67;15.27;;;;;;;-5.50;100.00;97279.25;5021822;28;20041;-67
2022/03/02 04:33:22;;;;;;;37.08;16.48;;;;;;;-5.31;100.00;97282.44;5021508;28;20759;-67
2022/03/02 04:35:47;;;;;;;31.73;14.70;;;;;;;-5.24;100.00;97282.22;5049048;28;20076;-65
2022/03/02 04:38:14;;;;;;;33.75;15.48;;;;;;;-5.15;100.00;97282.56;5036101;28;20043;-66
2022/03/02 04:40:39;;;;;;;33.05;15.68;;;;;;;-5.10;100.00;97280.75;5042998;28;20037;-67
2022/03/02 04:43:04;;;;;;;35.58;15.63;;;;;;;-5.06;100.00;97275.72;5018168;28;20048;-66
2022/03/02 04:45:31;;;;;;;35.03;16.70;;;;;;;-5.06;100.00;97276.56;5055195;28;20109;-67
2022/03/02 04:47:58;;;;;;;35.33;16.58;;;;;;;-4.89;100.00;97271.09;5066080;28;20052;-66
2022/03/02 04:50:25;;;;;;;35.10;16.08;;;;;;;-4.85;100.00;97264.19;5058247;28;20063;-66
2022/03/02 04:52:52;;;;;;;34.70;16.55;;;;;;;-4.75;100.00;97279.50;5053578;28;20577;-65
2022/03/02 04:55:18;;;;;;;41.85;15.95;;;;;;;-4.65;100.00;97279.59;5028733;28;20489;-67
2022/03/02 04:57:52;;;;;;;39.10;15.57;;;;;;;-4.62;100.00;97276.41;5042042;28;20048;-66
2022/03/02 05:00:20;;;;;;;37.22;15.57;;;;;;;-4.62;100.00;97272.94;5040743;28;20036;-66
2022/03/02 05:02:48;;;;;;;32.58;15.38;;;;;;;-4.58;100.00;97281.25;5051537;28;20048;-66
2022/03/02 05:05:16;;;;;;;38.38;15.95;;;;;;;-4.61;100.00;97278.03;5029432;28;20477;-66
2022/03/02 05:07:42;;;;;;;38.75;15.80;;;;;;;-4.56;100.00;97271.91;5041561;28;20049;-66
2022/03/02 05:10:09;;;;;;;31.67;15.73;;;;;;;-4.63;100.00;97272.16;5036124;28;20132;-67
2022/03/02 05:12:35;;;;;;;34.47;15.55;;;;;;;-4.73;100.00;97268.56;5044277;28;20041;-67
2022/03/02 05:15:02;;;;;;;35.70;15.57;;;;;;;-4.89;100.00;97270.28;5044564;28;20101;-65
2022/03/02 05:17:27;;;;;;;29.20;15.50;;;;;;;-4.84;100.00;97265.00;5025862;28;20700;-64
2022/03/02 05:19:53;;;;;;;32.58;15.60;;;;;;;-4.74;100.00;97265.06;5031913;28;20183;-65
2022/03/02 05:22:18;;;;;;;32.50;16.45;;;;;;;-4.78;100.00;97263.97;5038578;28;20048;-66
2022/03/02 05:24:44;;;;;;;34.40;15.93;;;;;;;-4.78;100.00;97260.50;5035469;28;20045;-65
2022/03/02 05:27:09;;;;;;;36.17;17.42;;;;;;;-5.06;100.00;97263.19;5027525;28;20398;-65
2022/03/02 05:29:36;;;;;;;37.22;16.75;;;;;;;-5.41;100.00;97261.75;5041602;28;20075;-64
2022/03/02 05:32:02;;;;;;;32.42;16.67;;;;;;;-5.64;100.00;97264.69;5035244;28;20040;-67
2022/03/02 05:34:27;;;;;;;30.73;15.77;;;;;;;-5.79;100.00;97257.28;5031078;28;20052;-65
2022/03/02 05:36:53;;;;;;;34.75;15.57;;;;;;;-5.84;100.00;97258.03;5038652;28;20041;-66
2022/03/02 05:39:18;;;;;;;41.22;17.73;;;;;;;-5.96;100.00;97258.19;5025891;28;20077;-65
2022/03/02 05:41:44;;;;;;;33.35;16.80;;;;;;;-6.08;100.00;97259.34;5039508;28;20104;-66
2022/03/02 05:44:09;;;;;;;34.08;16.92;;;;;;;-6.16;100.00;97261.38;5038104;28;20371;-65
2022/03/02 05:46:35;;;;;;;43.40;18.02;;;;;;;-6.28;100.00;97257.19;5027714;28;20061;-67
2022/03/02 05:49:03;;;;;;;37.75;18.48;;;;;;;-6.40;100.00;97263.41;5001855;28;20550;-64
2022/03/02 05:51:30;;;;;;;42.38;18.27;;;;;;;-6.47;100.00;97253.97;4999544;28;20145;-66
2022/03/02 05:53:56;;;;;;;48.55;23.95;;;;;;;-6.53;100.00;97259.22;5028045;28;20059;-65
2022/03/02 05:56:23;;;;;;;38.10;18.70;;;;;;;-6.61;100.00;97267.66;5030992;28;20041;-64
2022/03/02 05:58:48;;;;;;;41.30;18.60;;;;;;;-6.62;100.00;97271.34;5041573;28;20044;-66
2022/03/02 06:01:14;;;;;;;47.72;19.73;;;;;;;-6.54;100.00;97275.44;5035801;28;20049;-67
2022/03/02 06:03:39;;;;;;;41.58;19.30;;;;;;;-6.50;100.00;97265.13;5047336;28;20045;-66
2022/03/02 06:06:05;;;;;;;40.75;18.20;;;;;;;-6.18;100.00;97260.78;5036346;28;20048;-67
2022/03/02 06:08:31;;;;;;;37.83;17.75;;;;;;;-6.04;100.00;97273.81;5033211;28;20084;-66
2022/03/02 06:10:56;;;;;;;39.05;18.13;;;;;;;-6.00;100.00;97270.38;5034529;28;20040;-68
2022/03/02 06:13:22;;;;;;;34.28;16.55;;;;;;;-5.83;100.00;97269.53;5038860;28;20528;-67
2022/03/02 06:15:47;;;;;;;35.15;17.30;;;;;;;-5.63;100.00;97264.44;5045069;28;20102;-65
2022/03/02 06:18:13;;;;;;;39.53;17.55;;;;;;;-5.50;100.00;97268.59;5039688;28;20037;-67
2022/03/02 06:20:41;;;;;;;38.65;16.58;;;;;;;-5.74;100.00;97264.53;5046956;28;20037;-65
2022/03/02 06:23:06;;;;;;;36.40;15.27;;;;;;;-5.90;100.00;97268.91;5033145;28;20382;-65
2022/03/02 06:25:32;;;;;;;39.50;17.58;;;;;;;-5.79;100.00;97260.75;5039365;28;20041;-65
2022/03/02 06:27:57;;;;;;;39.53;17.20;;;;;;;-5.55;100.00;97265.84;5052196;28;20079;-65
2022/03/02 06:30:23;;;;;;;40.47;16.70;;;;;;;-5.34;100.00;97258.09;5044349;28;20787;-65
2022/03/02 06:32:48;;;;;;;39.20;17.83;;;;;;;-5.14;100.00;97260.97;5050927;28;20048;-65
2022/03/02 06:35:14;;;;;;;33.20;17.42;;;;;;;-5.01;100.00;97260.56;5035400;28;20038;-67
2022/03/02 06:37:39;;;;;;;37.90;16.27;;;;;;;-4.85;100.00;97264.19;5037008;28;20191;-65
2022/03/02 06:40:11;;;;;;;36.92;16.08;;;;;;;-4.64;100.00;97262.50;5027040;28;20124;-65
2022/03/02 06:42:59;;;;;;;36.53;16.77;;;;;;;-4.54;100.00;97256.41;5027930;28;20037;-67
2022/03/02 06:45:32;;;;;;;37.65;16.70;;;;;;;-4.47;100.00;97258.88;5054931;28;20237;-67
2022/03/02 06:48:07;;;;;;;39.47;16.42;;;;;;;-4.22;100.00;97259.06;5045042;28;20045;-65
2022/03/02 06:50:37;;;;;;;35.60;16.92;;;;;;;-3.77;100.00;97256.09;5043468;28;20067;-66
2022/03/02 06:53:04;;;;;;;35.25;16.52;;;;;;;-3.30;99.95;97244.50;5041124;28;20058;-67
2022/03/02 06:55:30;;;;;;;37.20;15.10;;;;;;;-2.65;94.51;97252.13;5035475;28;20041;-64
2022/03/02 06:57:57;;;;;;;31.75;14.30;;;;;;;-2.42;90.96;97248.09;5044801;28;20044;-66
2022/03/02 07:00:23;;;;;;;32.17;14.95;;;;;;;-2.16;88.64;97247.00;5040171;28;20049;-67
2022/03/02 07:02:57;;;;;;;28.90;13.38;;;;;;;-1.70;87.63;97243.41;5021424;28;20045;-67
2022/03/02 07:05:22;;;;;;;23.70;12.95;;;;;;;-1.29;82.45;97242.44;5031536;28;20053;-66
2022/03/02 07:07:48;;;;;;;33.72;13.70;;;;;;;-0.47;81.18;97236.50;5044599;28;20140;-69
2022/03/02 07:10:14;;;;;;;23.17;12.93;;;;;;;0.55;76.23;97237.38;5045521;28;20048;-66
2022/03/02 07:12:40;;;;;;;33.55;13.15;;;;;;;1.69;70.99;97231.94;5046386;28;20124;-66
2022/03/02 07:15:07;;;;;;;25.58;12.82;;;;;;;2.64;66.93;97232.34;5019739;28;20095;-66
2022/03/02 07:17:32;;;;;;;26.30;13.48;;;;;;;3.04;61.52;97231.78;5033927;28;20190;-67
2022/03/02 07:20:10;;;;;;;30.90;12.95;;;;;;;3.63;60.27;97227.16;5036965;28;20136;-68
2022/03/02 07:22:43;;;;;;;23.17;11.93;;;;;;;3.99;57.95;97228.19;5039749;28;20179;-66
2022/03/02 07:25:24;;;;;;;29.70;14.65;;;;;;;3.96;58.39;97229.63;5030057;28;20069;-67
2022/03/02 07:27:50;;;;;;;27.77;13.82;;;;;;;3.43;59.82;97230.38;5042760;28;20392;-67
2022/03/02 07:30:16;;;;;;;27.25;13.52;;;;;;;3.70;61.05;97224.03;5034185;28;20042;-66
2022/03/02 07:32:45;;;;;;;25.00;12.95;;;;;;;3.89;59.14;97228.44;5021029;28;20052;-66
2022/03/02 07:35:12;;;;;;;21.27;10.07;;;;;;;4.86;57.01;97228.53;5022383;28;20124;-66
2022/03/02 07:37:39;;;;;;;25.10;12.30;;;;;;;5.29;55.61;97226.97;5024772;28;20045;-69
2022/03/02 07:40:05;;;;;;;23.67;12.00;;;;;;;5.41;54.10;97215.47;5029303;28;20045;-66
2022/03/02 07:42:33;;;;;;;25.52;12.23;;;;;;;5.65;53.92;97225.84;5022415;28;20050;-69
2022/03/02 07:44:58;;;;;;;22.02;12.73;;;;;;;5.28;55.87;97226.19;5017413;28;20037;-67
2022/03/02 07:47:24;;;;;;;31.50;13.48;;;;;;;5.34;54.68;97216.75;5005056;28;20448;-68
2022/03/02 07:49:50;;;;;;;37.83;13.90;;;;;;;5.48;53.68;97226.66;5017745;28;20136;-67
2022/03/02 07:52:17;;;;;;;25.60;14.85;;;;;;;5.01;54.57;97229.19;5019284;28;20068;-67
2022/03/02 07:54:48;;;;;;;26.33;13.60;;;;;;;4.74;55.27;97226.41;5022494;28;20049;-67
2022/03/02 07:57:15;;;;;;;26.83;13.43;;;;;;;4.75;55.89;97228.03;5013187;28;20499;-67
2022/03/02 07:59:43;;;;;;;22.48;12.90;;;;;;;4.59;58.11;97219.53;5013552;28;20049;-67
2022/03/02 08:02:10;;;;;;;24.67;13.10;;;;;;;4.32;58.78;97228.69;5011102;28;20417;-67
2022/03/02 08:04:37;;;;;;;39.63;14.35;;;;;;;4.08;59.91;97226.31;5018380;28;20053;-68
2022/03/02 08:07:04;;;;;;;27.77;13.63;;;;;;;3.95;60.41;97233.44;5022142;28;20350;-66
2022/03/02 08:09:32;;;;;;;28.33;14.70;;;;;;;3.75;60.48;97223.91;5021015;28;20042;-68
2022/03/02 08:12:01;;;;;;;30.73;15.55;;;;;;;3.54;61.66;97220.88;5014710;28;20044;-67
2022/03/02 08:14:27;;;;;;;32.88;14.52;;;;;;;3.35;61.93;97217.56;5019581;28;20046;-66
2022/03/02 08:16:55;;;;;;;31.88;15.35;;;;;;;3.23;62.59;97220.81;5040421;28;20052;-67
2022/03/02 08:19:21;;;;;;;28.05;14.70;;;;;;;3.33;62.66;97217.88;5045637;28;20360;-68
2022/03/02 08:21:54;;;;;;;27.85;15.23;;;;;;;3.49;63.01;97225.63;5043642;28;20052;-67
2022/03/02 08:24:29;;;;;;;30.73;14.35;;;;;;;3.85;62.40;97222.84;5053580;28;20033;-68
2022/03/02 08:27:00;;;;;;;28.90;14.15;;;;;;;4.47;60.96;97221.25;5042240;28;20041;-67
2022/03/02 08:29:30;;;;;;;25.58;14.00;;;;;;;4.56;60.32;97220.16;5038113;28;20073;-67
2022/03/02 08:31:58;;;;;;;;;;;;;;;5.31;58.67;97211.16;5041601;28;20055;-68
2022/03/02 08:34:24;;;;;;;27.58;13.48;;;;;;;5.95;56.93;97215.88;5037591;28;19913;-68
2022/03/02 08:36:50;;;;;;;30.30;14.70;;;;;;;6.54;54.47;97212.50;5042140;28;20124;-67
2022/03/02 08:39:15;;;;;;;23.67;12.90;;;;;;;7.22;52.69;97204.25;5038629;28;20136;-68
2022/03/02 08:41:41;;;;;;;26.88;13.80;;;;;;;7.59;51.06;97209.84;5052130;28;20048;-68
2022/03/02 08:44:08;;;;;;;27.08;12.95;;;;;;;7.40;49.53;97209.53;5052178;28;20099;-67
2022/03/02 08:46:34;;;;;;;30.95;13.98;;;;;;;7.56;48.75;97205.09;5046675;28;20375;-69
2022/03/02 08:49:00;;;;;;;23.20;12.50;;;;;;;7.92;48.07;97209.06;5044023;28;20117;-68
2022/03/02 08:51:27;;;;;;;20.65;12.20;;;;;;;7.56;48.12;97217.91;5039095;28;20033;-68
2022/03/02 08:53:59;;;;;;;26.98;13.38;;;;;;;7.70;47.64;97210.25;5043777;28;20053;-68
2022/03/02 08:56:25;;;;;;;22.55;12.50;;;;;;;7.42;48.20;97205.38;5038160;28;20121;-68
2022/03/02 08:58:53;;;;;;;24.52;12.75;;;;;;;6.64;49.26;97201.22;5044346;28;20143;-68
2022/03/02 09:01:18;;;;;;;22.48;12.43;;;;;;;6.56;49.37;97199.38;5045853;28;20053;-68
2022/03/02 09:03:51;;;;;;;22.58;13.57;;;;;;;6.12;52.32;97194.13;5067353;28;20047;-70
2022/03/02 09:06:20;;;;;;;25.45;13.55;;;;;;;6.29;51.28;97201.41;5055841;28;20064;-68
2022/03/02 09:08:45;;;;;;;21.15;12.63;;;;;;;6.00;52.86;97193.19;5062278;28;20071;-67
2022/03/02 09:11:11;;;;;;;24.08;13.38;;;;;;;6.33;52.22;97196.09;5055205;28;20041;-68
2022/03/02 09:13:38;;;;;;;25.27;14.38;;;;;;;5.73;54.12;97193.22;5048458;28;20045;-66
2022/03/02 09:16:04;;;;;;;25.95;13.23;;;;;;;5.47;55.55;97195.97;5040493;28;20059;-65
2022/03/02 09:18:30;;;;;;;23.30;12.07;;;;;;;5.65;54.42;97195.94;5048262;28;20056;-67
2022/03/02 09:21:03;;;;;;;22.63;12.57;;;;;;;4.59;57.06;97197.00;5061473;28;20093;-68
2022/03/02 09:23:34;;;;;;;25.65;13.60;;;;;;;4.45;58.85;97191.72;5042807;28;20122;-67
2022/03/02 09:26:04;;;;;;;24.58;12.70;;;;;;;3.12;63.45;97189.69;5041398;28;20045;-67
2022/03/02 09:28:34;;;;;;;27.75;15.25;;;;;;;2.26;66.85;97186.59;5041770;28;20048;-67
2022/03/02 09:31:03;;;;;;;30.35;15.52;;;;;;;2.21;69.00;97189.41;5043190;28;20474;-66
2022/03/02 09:33:29;;;;;;;26.17;14.43;;;;;;;3.16;66.44;97193.38;5040904;28;20071;-68
2022/03/02 09:35:56;;;;;;;28.67;14.02;;;;;;;3.66;63.85;97189.75;5040002;28;20493;-68
2022/03/02 09:38:23;;;;;;;26.60;14.00;;;;;;;4.49;61.56;97184.53;5037238;28;23446;-67
2022/03/02 09:40:51;;;;;;;30.30;14.40;;;;;;;4.83;59.38;97177.59;5042616;28;20041;-68
2022/03/02 09:43:21;;;;;;;28.08;13.15;;;;;;;5.07;59.04;97176.34;5037690;28;20040;-67
2022/03/02 09:45:50;;;;;;;;;;;;;;;5.11;57.86;97174.56;5043095;28;20056;-66
2022/03/02 09:48:30;;;;;;;24.93;14.40;;;;;;;5.21;57.49;97176.19;5037795;28;19920;-66
2022/03/02 09:51:06;;;;;;;26.20;14.25;;;;;;;5.67;56.82;97169.25;5045885;28;20045;-66
2022/03/02 09:53:33;;;;;;;27.02;14.30;;;;;;;5.04;57.78;97171.53;5045804;28;20122;-67
2022/03/02 09:56:04;;;;;;;27.10;14.15;;;;;;;4.07;60.12;97181.38;5044843;28;20033;-66
2022/03/02 09:58:30;;;;;;;26.50;14.75;;;;;;;4.49;59.83;97183.75;5043813;28;20656;-68
2022/03/02 10:00:57;;;;;;;30.60;15.70;;;;;;;5.59;56.39;97179.00;5046162;28;20040;-68
2022/03/02 10:03:26;;;;;;;25.05;14.48;;;;;;;5.67;54.47;97172.78;5038957;28;20548;-68
2022/03/02 10:05:53;;;;;;;25.52;13.95;;;;;;;5.80;54.88;97165.56;5042917;28;20040;-68
2022/03/02 10:08:21;;;;;;;25.38;14.40;;;;;;;6.00;54.67;97171.44;5039402;28;20045;-69
2022/03/02 10:10:48;;;;;;;30.05;14.68;;;;;;;6.18;53.79;97164.03;5044311;28;20369;-68
2022/03/02 10:13:16;;;;;;;24.25;13.77;;;;;;;6.15;52.92;97161.94;5038940;28;20387;-67
2022/03/02 10:15:43;;;;;;;25.85;15.18;;;;;;;5.80;54.27;97145.69;5074969;22;20060;-66
2022/03/02 10:18:11;;;;;;;30.40;16.35;;;;;;;3.96;60.89;97151.03;5038805;28;20094;-67
2022/03/02 10:20:43;;;;;;;31.00;16.52;;;;;;;2.97;64.94;97151.03;5037841;28;20401;-67
2022/03/02 10:23:27;;;;;;;30.67;16.60;;;;;;;2.82;66.24;97154.09;5039989;28;20572;-67
2022/03/02 10:26:03;;;;;;;28.50;16.13;;;;;;;3.04;65.91;97151.41;5042799;28;20405;-67
2022/03/02 10:28:44;;;;;;;27.67;15.77;;;;;;;4.49;61.74;97154.69;5041311;28;20127;-68
2022/03/02 10:31:32;;;;;;;32.75;15.70;;;;;;;5.58;56.38;97144.00;5038662;28;20593;-67
2022/03/02 10:34:26;;;;;;;28.13;14.57;;;;;;;5.60;56.09;97129.00;5033006;28;20099;-66
2022/03/02 10:37:07;;;;;;;25.13;14.75;;;;;;;5.92;55.81;97135.78;5043128;28;20366;-65
2022/03/02 10:40:05;;;;;;;28.20;15.48;;;;;;;4.78;58.89;97137.03;5042783;28;20392;-65
2022/03/02 10:42:33;;;;;;;29.33;15.40;;;;;;;4.53;61.98;97138.59;5043104;28;20140;-66
2022/03/02 10:45:03;;;;;;;23.75;15.15;;;;;;;5.63;57.52;97132.97;5043487;28;20045;-67
2022/03/02 10:47:30;;;;;;;29.88;14.80;;;;;;;6.21;55.61;97141.59;5044605;28;20052;-67
2022/03/02 10:49:59;;;;;;;28.05;16.10;;;;;;;6.92;53.67;97137.34;5049727;28;20052;-67
2022/03/02 10:52:25;;;;;;;26.87;14.83;;;;;;;7.13;51.97;97135.41;5039520;28;20048;-66
2022/03/02 10:54:54;;;;;;;26.85;14.57;;;;;;;7.11;52.78;97134.94;5044758;28;20186;-67
2022/03/02 10:57:24;;;;;;;30.25;15.10;;;;;;;7.17;52.40;97138.28;5036403;28;20029;-67
2022/03/02 10:59:51;;;;;;;;;;;;;;;4.66;59.48;97136.84;5042868;28;20124;-65
2022/03/02 11:02:21;;;;;;;25.52;15.27;;;;;;;4.70;60.94;97140.53;5038413;28;19991;-65
2022/03/02 11:04:48;;;;;;;33.55;17.73;;;;;;;5.77;57.52;97125.41;5041984;28;20132;-67
2022/03/02 11:07:15;;;;;;;28.33;15.43;;;;;;;6.43;54.50;97126.94;5038070;28;20067;-66
2022/03/02 11:09:47;;;;;;;27.65;14.70;;;;;;;6.63;54.35;97119.94;5043377;28;20409;-66
2022/03/02 11:12:13;;;;;;;27.77;15.60;;;;;;;6.60;53.09;97113.22;5035722;28;20037;-67
2022/03/02 11:14:56;;;;;;;32.20;15.18;;;;;;;6.28;53.73;97112.78;5042628;28;20045;-68
2022/03/02 11:17:22;;;;;;;34.53;14.75;;;;;;;5.61;57.09;97114.28;5035592;28;20084;-67